Time;durP1;ratioP1;P1;durP2;ratioP2;P2;SDS_P1;SDS_P2;PMS_P1;PMS_P2;Temp;Humidity;BMP_temperature;BMP_pressure;BME280_temperature;BME280_humidity;BME280_pressure;Samples;Min_cycle;Max_cycle;Signal;HPM_P1;HPM_P2
2023/08/06 00:00:21;;;;;;;0.45;0.40;;;;;;;25.67;47.39;95738.59;5024162;28;20030;-29
2023/08/06 00:02:47;;;;;;;1.23;0.57;;;;;;;25.62;47.96;95733.94;5027379;28;20109;-29
2023/08/06 00:05:13;;;;;;;0.65;0.50;;;;;;;25.71;47.13;95725.88;5027199;28;20024;-27
2023/08/06 00:07:38;;;;;;;0.93;0.40;;;;;;;25.61;47.72;95721.31;5019404;28;20021;-30
2023/08/06 00:10:04;;;;;;;0.75;0.50;;;;;;;25.75;47.44;95725.50;5030906;28;20385;-29
2023/08/06 00:12:30;;;;;;;1.00;0.40;;;;;;;25.53;48.17;95729.59;5024201;28;20104;-29
2023/08/06 00:14:55;;;;;;;3.38;0.60;;;;;;;25.77;47.55;95736.81;5026912;28;20109;-29
2023/08/06 00:17:22;;;;;;;1.80;0.60;;;;;;;25.51;48.36;95739.72;5021720;28;20049;-29
2023/08/06 00:19:47;;;;;;;3.03;0.50;;;;;;;25.52;48.24;95738.44;5031341;28;20059;-29
2023/08/06 00:22:12;;;;;;;0.70;0.50;;;;;;;25.54;47.85;95722.75;5027543;28;20063;-29
2023/08/06 00:24:38;;;;;;;1.85;0.57;;;;;;;25.58;47.96;95722.41;5027367;28;20033;-29
2023/08/06 00:27:04;;;;;;;1.25;0.50;;;;;;;25.50;48.52;95727.13;5025920;28;20033;-30
2023/08/06 00:29:29;;;;;;;2.63;0.40;;;;;;;25.52;47.86;95713.47;5027203;28;20021;-29
2023/08/06 00:31:54;;;;;;;0.77;0.40;;;;;;;25.53;47.67;95718.47;5026453;28;20029;-28
2023/08/06 00:34:20;;;;;;;0.40;0.40;;;;;;;25.67;47.00;95713.63;5026722;28;20017;-29
2023/08/06 00:36:45;;;;;;;1.23;0.50;;;;;;;25.61;47.07;95713.75;5020978;28;20537;-29
2023/08/06 00:39:11;;;;;;;0.70;0.40;;;;;;;25.62;46.95;95711.72;5024074;28;20049;-29
2023/08/06 00:41:37;;;;;;;1.38;0.50;;;;;;;25.69;46.74;95699.94;5023701;28;20029;-29
2023/08/06 00:44:03;;;;;;;0.40;0.40;;;;;;;25.59;47.01;95710.72;5022652;28;20175;-30
2023/08/06 00:46:28;;;;;;;2.58;0.50;;;;;;;25.63;46.57;95696.53;5025714;28;20053;-29
2023/08/06 00:48:55;;;;;;;1.85;1.00;;;;;;;25.66;46.47;95706.56;5020649;28;20042;-29
2023/08/06 00:51:20;;;;;;;0.40;0.32;;;;;;;25.63;47.18;95693.75;5022048;28;20126;-29
2023/08/06 00:53:47;;;;;;;0.50;0.40;;;;;;;25.63;47.35;95691.00;5019171;28;20068;-29
2023/08/06 00:56:12;;;;;;;0.50;0.50;;;;;;;25.59;47.34;95696.13;5018446;28;20030;-30
2023/08/06 00:58:39;;;;;;;0.60;0.40;;;;;;;25.65;47.08;95691.19;5022488;28;20430;-28
2023/08/06 01:01:04;;;;;;;1.10;0.40;;;;;;;25.69;46.96;95694.38;5022321;28;20030;-29
2023/08/06 01:03:30;;;;;;;0.73;0.40;;;;;;;25.66;47.02;95695.47;5021869;28;20018;-29
2023/08/06 01:05:55;;;;;;;0.70;0.30;;;;;;;25.72;46.85;95691.22;5020386;28;20053;-31
2023/08/06 01:08:51;;;;;;;2.17;0.50;;;;;;;25.70;46.84;95691.06;5021116;28;20041;-29
2023/08/06 01:11:25;;;;;;;1.10;0.50;;;;;;;25.69;46.36;95689.56;5025185;28;20049;-29
2023/08/06 01:14:02;;;;;;;2.33;0.30;;;;;;;25.70;46.60;95698.66;5022406;28;20550;-29
2023/08/06 01:16:30;;;;;;;0.47;0.30;;;;;;;25.66;46.54;95706.56;5021611;28;20461;-29
2023/08/06 01:18:57;;;;;;;0.95;0.40;;;;;;;25.52;46.97;95702.34;5023248;28;20029;-30
2023/08/06 01:21:23;;;;;;;1.73;0.40;;;;;;;25.58;46.61;95705.75;5025149;28;20481;-28
2023/08/06 01:23:48;;;;;;;2.53;0.30;;;;;;;25.62;47.06;95701.34;5023711;28;20075;-29
2023/08/06 01:26:17;;;;;;;0.77;0.50;;;;;;;25.50;47.32;95691.03;5028928;28;20049;-29
2023/08/06 01:28:55;;;;;;;0.70;0.50;;;;;;;25.64;47.23;95698.78;5014856;28;20033;-29
2023/08/06 01:31:31;;;;;;;0.80;0.40;;;;;;;25.48;47.27;95690.84;5025279;28;20017;-30
2023/08/06 01:33:59;;;;;;;0.30;0.30;;;;;;;25.51;47.46;95695.31;5024104;28;20033;-29
2023/08/06 01:36:26;;;;;;;0.63;0.40;;;;;;;25.57;47.06;95685.56;5017870;28;20037;-29
2023/08/06 01:38:53;;;;;;;0.80;0.52;;;;;;;25.52;47.17;95691.25;5018593;28;20052;-31
2023/08/06 01:41:21;;;;;;;0.50;0.40;;;;;;;25.52;46.82;95689.22;5021961;28;20052;-29
2023/08/06 01:43:48;;;;;;;1.35;0.50;;;;;;;25.49;47.06;95692.34;5021388;28;20021;-29
2023/08/06 01:46:13;;;;;;;1.73;0.47;;;;;;;25.55;47.13;95687.41;5021547;28;20087;-29
2023/08/06 01:48:39;;;;;;;1.95;0.50;;;;;;;25.63;46.68;95686.19;4973227;28;1394872;-30
2023/08/06 01:51:05;;;;;;;2.35;0.43;;;;;;;25.62;46.59;95681.16;5020642;28;20371;-29
2023/08/06 01:53:31;;;;;;;1.23;0.30;;;;;;;25.51;46.66;95681.44;5023652;28;20385;-28
2023/08/06 01:55:57;;;;;;;5.78;0.60;;;;;;;25.44;46.96;95696.00;5025849;28;20374;-29
2023/08/06 01:58:23;;;;;;;1.20;0.38;;;;;;;25.53;46.69;95696.25;5017720;28;20026;-29
2023/08/06 02:00:48;;;;;;;0.88;0.30;;;;;;;25.61;46.50;95694.31;5021802;28;20026;-28
2023/08/06 02:03:13;;;;;;;0.60;0.47;;;;;;;25.66;46.43;95684.34;5020903;28;20017;-28
2023/08/06 02:05:40;;;;;;;0.43;0.40;;;;;;;25.50;46.63;95693.81;5022724;28;20112;-29
2023/08/06 02:08:05;;;;;;;0.70;0.47;;;;;;;25.47;46.88;95695.66;5014623;28;20038;-29
2023/08/06 02:10:31;;;;;;;1.20;0.50;;;;;;;25.50;46.79;95697.34;5021677;28;20026;-29
2023/08/06 02:12:56;;;;;;;0.95;0.47;;;;;;;25.48;46.59;95699.16;5029085;28;20030;-29
2023/08/06 02:15:22;;;;;;;0.50;0.45;;;;;;;25.29;47.65;95691.81;5020635;28;20021;-30
2023/08/06 02:17:47;;;;;;;0.73;0.50;;;;;;;25.24;47.68;95700.25;5015888;28;20122;-30
2023/08/06 02:20:12;;;;;;;0.75;0.40;;;;;;;25.36;46.99;95693.91;5021154;28;20026;-29
2023/08/06 02:22:38;;;;;;;2.50;0.50;;;;;;;25.21;47.78;95693.03;5028653;28;20417;-29
2023/08/06 02:25:04;;;;;;;0.80;0.50;;;;;;;25.25;47.65;95696.94;5014260;28;20021;-29
2023/08/06 02:27:29;;;;;;;0.60;0.40;;;;;;;25.37;47.07;95697.41;5021992;28;20066;-30
2023/08/06 02:29:55;;;;;;;1.52;0.40;;;;;;;25.26;47.60;95701.22;5020459;28;20505;-30
2023/08/06 02:32:20;;;;;;;0.47;0.45;;;;;;;25.24;47.53;95689.91;5021198;28;20408;-29
2023/08/06 02:34:45;;;;;;;1.02;0.50;;;;;;;25.12;47.93;95674.81;5021460;28;20466;-28
2023/08/06 02:37:11;;;;;;;1.90;0.60;;;;;;;25.24;47.47;95672.50;5022947;28;20117;-29
2023/08/06 02:39:39;;;;;;;1.42;0.43;;;;;;;25.26;47.53;95670.69;5024470;28;20021;-29
2023/08/06 02:42:06;;;;;;;1.13;0.55;;;;;;;25.16;47.85;95666.16;5023396;28;20382;-28
2023/08/06 02:44:31;;;;;;;1.00;0.70;;;;;;;25.27;47.37;95660.34;5021976;28;20026;-29
2023/08/06 02:46:57;;;;;;;1.70;1.15;;;;;;;25.21;47.77;95654.19;5021437;28;20050;-29
2023/08/06 02:49:22;;;;;;;2.10;1.08;;;;;;;25.21;47.86;95663.28;5028196;28;20132;-29
2023/08/06 02:51:48;;;;;;;1.67;0.98;;;;;;;25.21;48.00;95666.03;5020991;28;20382;-30
2023/08/06 02:54:13;;;;;;;2.90;1.23;;;;;;;25.29;47.65;95664.06;5028150;28;20029;-29
2023/08/06 02:56:43;;;;;;;2.47;1.00;;;;;;;25.15;48.08;95662.66;5021504;28;20401;-28
2023/08/06 02:59:08;;;;;;;2.05;0.98;;;;;;;25.15;48.37;95657.09;5027290;28;20053;-31
2023/08/06 03:01:36;;;;;;;2.50;1.05;;;;;;;25.20;47.73;95659.00;5013884;28;20123;-29
2023/08/06 03:04:01;;;;;;;2.55;1.10;;;;;;;25.23;48.05;95646.06;5014239;28;20036;-28
2023/08/06 03:06:27;;;;;;;2.92;1.30;;;;;;;25.25;47.93;95658.09;5021040;28;20384;-29
2023/08/06 03:08:52;;;;;;;2.58;1.40;;;;;;;25.26;47.78;95654.03;5023350;28;20487;-29
2023/08/06 03:11:17;;;;;;;3.10;1.05;;;;;;;25.19;48.29;95654.75;5022948;28;20021;-28
2023/08/06 03:13:43;;;;;;;1.00;0.80;;;;;;;25.33;47.63;95652.63;5022767;28;20033;-29
2023/08/06 03:16:08;;;;;;;3.78;1.20;;;;;;;25.18;47.80;95658.06;5021250;28;20108;-29
2023/08/06 03:18:34;;;;;;;1.10;0.70;;;;;;;25.21;47.53;95652.16;5020313;28;20466;-29
2023/08/06 03:20:59;;;;;;;1.38;0.70;;;;;;;25.14;47.71;95647.28;5021412;28;20017;-28
2023/08/06 03:23:25;;;;;;;2.30;1.00;;;;;;;25.15;47.74;95648.78;5018228;28;20083;-30
2023/08/06 03:25:50;;;;;;;1.38;0.63;;;;;;;25.33;47.17;95641.53;5015241;28;20367;-29
2023/08/06 03:28:16;;;;;;;1.02;0.70;;;;;;;25.20;47.30;95628.47;5020480;28;20136;-29
2023/08/06 03:30:41;;;;;;;2.25;0.60;;;;;;;25.29;47.10;95630.75;5013980;28;20029;-29
2023/08/06 03:33:07;;;;;;;1.15;0.63;;;;;;;25.21;46.89;95629.97;5022533;28;20462;-28
2023/08/06 03:35:32;;;;;;;1.17;0.70;;;;;;;25.24;47.20;95634.41;5019611;28;20025;-28
2023/08/06 03:37:58;;;;;;;0.95;0.40;;;;;;;25.23;46.82;95632.19;5020520;28;20033;-29
2023/08/06 03:40:23;;;;;;;0.93;0.50;;;;;;;25.26;46.63;95631.84;5027081;28;20028;-30
2023/08/06 03:42:49;;;;;;;1.38;0.57;;;;;;;25.35;46.14;95622.28;5020931;28;20030;-29
2023/08/06 03:45:14;;;;;;;1.30;0.40;;;;;;;25.22;46.57;95620.34;5020749;28;20021;-29
2023/08/06 03:47:40;;;;;;;1.15;0.52;;;;;;;25.18;46.51;95619.94;5020818;28;20022;-28
2023/08/06 03:50:05;;;;;;;1.33;0.50;;;;;;;25.23;46.18;95616.28;5020336;28;20049;-29
2023/08/06 03:52:31;;;;;;;0.60;0.40;;;;;;;25.25;46.38;95621.28;5020884;28;20022;-29
2023/08/06 03:54:56;;;;;;;2.25;0.40;;;;;;;25.26;46.12;95615.19;5017982;28;20022;-29
2023/08/06 03:57:22;;;;;;;0.98;0.40;;;;;;;25.22;46.47;95614.78;5013671;28;20025;-29
2023/08/06 03:59:47;;;;;;;1.73;0.70;;;;;;;25.20;46.41;95617.38;5022849;28;20032;-29
2023/08/06 04:02:13;;;;;;;1.67;0.50;;;;;;;25.29;45.84;95616.88;5023735;28;20028;-29
2023/08/06 04:04:38;;;;;;;1.33;0.60;;;;;;;25.20;45.93;95625.69;5013011;28;20034;-29
2023/08/06 04:07:04;;;;;;;0.75;0.50;;;;;;;25.16;46.33;95616.97;5020778;28;20075;-29
2023/08/06 04:09:29;;;;;;;0.50;0.50;;;;;;;25.15;46.33;95609.94;5020014;28;20518;-29
2023/08/06 04:11:55;;;;;;;1.05;0.50;;;;;;;25.22;46.60;95619.63;5020104;28;20030;-29
2023/08/06 04:14:21;;;;;;;1.80;0.50;;;;;;;25.17;46.20;95621.22;5020456;28;20105;-29
2023/08/06 04:16:47;;;;;;;0.30;0.30;;;;;;;25.18;46.52;95627.53;5021184;28;20462;-29
2023/08/06 04:19:13;;;;;;;0.50;0.50;;;;;;;25.09;46.62;95628.00;5019848;28;20057;-29
2023/08/06 04:21:38;;;;;;;1.65;0.40;;;;;;;24.99;47.05;95622.19;5020687;28;20411;-28
2023/08/06 04:24:04;;;;;;;2.95;0.77;;;;;;;25.10;46.73;95621.91;5021803;28;20029;-28
2023/08/06 04:26:29;;;;;;;1.42;0.68;;;;;;;25.15;46.98;95625.84;5023870;28;20018;-28
2023/08/06 04:28:55;;;;;;;1.92;0.50;;;;;;;25.16;46.59;95632.88;5013490;28;20057;-30
2023/08/06 04:31:21;;;;;;;1.50;1.00;;;;;;;25.19;46.79;95627.00;5020405;28;20026;-29
2023/08/06 04:33:47;;;;;;;0.63;0.50;;;;;;;25.14;46.73;95625.09;5020188;28;20037;-31
2023/08/06 04:36:12;;;;;;;1.85;0.50;;;;;;;25.10;46.81;95635.06;5020342;28;20022;-29
2023/08/06 04:38:38;;;;;;;1.27;0.90;;;;;;;25.12;47.03;95640.78;5020086;28;20032;-28
2023/08/06 04:41:04;;;;;;;1.20;0.65;;;;;;;25.15;47.05;95631.38;5030012;28;20021;-29
2023/08/06 04:43:29;;;;;;;1.33;0.50;;;;;;;25.12;46.72;95635.22;5023756;28;20022;-29
2023/08/06 04:45:56;;;;;;;0.95;0.63;;;;;;;25.04;46.99;95635.94;5016422;28;20029;-29
2023/08/06 04:48:22;;;;;;;2.45;0.80;;;;;;;25.09;47.13;95628.75;5023455;28;20060;-29
2023/08/06 04:50:49;;;;;;;1.50;0.55;;;;;;;25.01;47.50;95627.94;5023900;28;20103;-31
2023/08/06 04:53:15;;;;;;;3.00;0.57;;;;;;;25.03;47.50;95636.47;5023313;28;20026;-29
2023/08/06 04:55:41;;;;;;;0.60;0.50;;;;;;;25.21;46.74;95641.06;5023434;28;20026;-29
2023/08/06 04:58:08;;;;;;;1.00;0.55;;;;;;;25.17;47.19;95632.34;5022985;28;20088;-29
2023/08/06 05:00:34;;;;;;;1.40;0.57;;;;;;;25.03;47.66;95630.91;5024503;28;20033;-28
2023/08/06 05:03:00;;;;;;;1.67;0.57;;;;;;;25.22;46.95;95622.38;5026543;28;20028;-29
2023/08/06 05:05:26;;;;;;;1.38;0.50;;;;;;;25.10;46.98;95633.00;5026459;28;20075;-29
2023/08/06 05:07:51;;;;;;;0.68;0.45;;;;;;;25.20;46.66;95627.72;5030478;28;20021;-29
2023/08/06 05:10:16;;;;;;;0.98;0.63;;;;;;;25.18;47.14;95625.50;5022011;28;20126;-29
2023/08/06 05:12:42;;;;;;;1.05;0.60;;;;;;;25.14;46.97;95624.34;5024659;28;20083;-29
2023/08/06 05:15:08;;;;;;;0.93;0.52;;;;;;;25.19;46.92;95626.25;5019702;28;20021;-30
2023/08/06 05:17:33;;;;;;;1.13;0.65;;;;;;;25.19;47.28;95631.78;5019337;28;20014;-29
2023/08/06 05:19:59;;;;;;;2.65;0.57;;;;;;;25.17;47.08;95635.09;5028923;28;20036;-28
2023/08/06 05:22:25;;;;;;;1.70;0.60;;;;;;;25.15;47.40;95634.16;5022771;28;20061;-30
2023/08/06 05:24:51;;;;;;;3.35;0.52;;;;;;;25.12;47.38;95633.19;5023227;28;20033;-30
2023/08/06 05:27:18;;;;;;;0.70;0.43;;;;;;;25.17;47.34;95629.56;5021459;28;20101;-29
2023/08/06 05:29:44;;;;;;;1.15;0.32;;;;;;;25.04;47.52;95632.41;5022689;28;20037;-29
2023/08/06 05:32:10;;;;;;;2.28;0.60;;;;;;;25.13;47.45;95629.16;5021527;28;20022;-29
2023/08/06 05:34:35;;;;;;;2.15;0.60;;;;;;;25.13;47.68;95629.16;5020359;28;20377;-29
2023/08/06 05:37:01;;;;;;;1.70;0.60;;;;;;;25.16;47.57;95614.19;5024935;28;20105;-29
2023/08/06 05:39:26;;;;;;;3.63;0.70;;;;;;;25.29;47.29;95625.22;5021854;28;20018;-31
2023/08/06 05:41:52;;;;;;;0.90;0.60;;;;;;;25.15;48.08;95621.03;5022305;28;20466;-28
2023/08/06 05:44:17;;;;;;;2.70;0.80;;;;;;;25.12;48.39;95619.34;5023648;28;20474;-28
2023/08/06 05:46:43;;;;;;;4.93;0.85;;;;;;;25.19;48.06;95627.00;5028222;28;20022;-30
2023/08/06 05:49:08;;;;;;;1.73;0.65;;;;;;;25.38;47.46;95626.75;5029177;28;20107;-29
2023/08/06 05:51:34;;;;;;;1.60;0.55;;;;;;;25.33;47.73;95631.16;5016601;28;20045;-29
2023/08/06 05:53:59;;;;;;;1.58;0.70;;;;;;;25.26;48.15;95634.63;5026046;28;20111;-29
2023/08/06 05:56:25;;;;;;;2.03;0.80;;;;;;;25.34;48.24;95631.91;5017459;28;20029;-29
2023/08/06 05:58:52;;;;;;;2.55;0.80;;;;;;;25.33;48.50;95631.16;5025671;28;20024;-29
2023/08/06 06:01:18;;;;;;;1.58;0.70;;;;;;;25.25;48.98;95624.81;5018319;28;20058;-29
2023/08/06 06:03:44;;;;;;;2.83;0.70;;;;;;;25.29;48.48;95636.31;5017092;28;20033;-29
2023/08/06 06:06:09;;;;;;;3.92;0.90;;;;;;;25.37;48.44;95647.47;5020198;28;20517;-30
2023/08/06 06:08:35;;;;;;;2.50;0.82;;;;;;;25.32;48.39;95645.59;5021976;28;20098;-29
2023/08/06 06:11:00;;;;;;;1.42;0.60;;;;;;;25.29;48.44;95652.97;5021929;28;20018;-29
2023/08/06 06:13:25;;;;;;;2.47;0.88;;;;;;;25.35;48.46;95650.78;5021492;28;20032;-32
2023/08/06 06:15:55;;;;;;;1.95;0.80;;;;;;;25.16;49.46;95650.25;5021787;28;20029;-31
2023/08/06 06:18:21;;;;;;;1.67;0.55;;;;;;;25.33;49.18;95652.63;5012989;28;20022;-29
2023/08/06 06:20:46;;;;;;;1.15;0.90;;;;;;;25.37;49.03;95653.75;5021745;28;20021;-29
2023/08/06 06:23:12;;;;;;;1.70;0.73;;;;;;;25.37;48.90;95659.31;5018449;28;20374;-29
2023/08/06 06:25:42;;;;;;;3.17;0.82;;;;;;;25.39;49.22;95651.19;5025431;28;20474;-29
2023/08/06 06:28:07;;;;;;;1.20;0.80;;;;;;;25.37;49.42;95656.53;5021858;28;20386;-30
2023/08/06 06:30:33;;;;;;;2.97;0.82;;;;;;;25.38;49.38;95658.03;5026710;28;20013;-28
2023/08/06 06:32:58;;;;;;;6.05;1.05;;;;;;;25.50;49.49;95666.06;5023312;28;20416;-31
2023/08/06 06:35:24;;;;;;;4.53;1.15;;;;;;;25.48;49.89;95669.38;5021471;28;20378;-29
2023/08/06 06:37:49;;;;;;;3.00;1.23;;;;;;;25.35;50.44;95667.44;5021318;28;20026;-29
2023/08/06 06:40:15;;;;;;;3.47;1.30;;;;;;;25.44;50.42;95668.25;5022972;28;20021;-29
2023/08/06 06:42:41;;;;;;;2.45;1.40;;;;;;;25.52;50.90;95666.25;5019019;28;20049;-29
2023/08/06 06:45:07;;;;;;;5.00;1.45;;;;;;;25.51;50.79;95662.00;5020950;28;20123;-28
2023/08/06 06:47:32;;;;;;;4.15;2.00;;;;;;;25.60;50.84;95664.28;5024564;28;20017;-29
2023/08/06 06:49:58;;;;;;;3.75;1.52;;;;;;;25.47;50.85;95670.66;5025468;28;20052;-29
2023/08/06 06:52:23;;;;;;;3.75;1.10;;;;;;;25.39;50.95;95669.88;5022390;28;20049;-29
2023/08/06 06:54:49;;;;;;;3.55;1.25;;;;;;;25.41;51.19;95670.06;5027675;28;20025;-29
2023/08/06 06:57:14;;;;;;;2.92;0.75;;;;;;;25.62;50.68;95672.84;5021225;28;20018;-29
2023/08/06 06:59:40;;;;;;;3.67;1.30;;;;;;;25.65;50.78;95674.53;5016442;28;20140;-29
2023/08/06 07:02:05;;;;;;;1.75;1.23;;;;;;;25.63;50.97;95682.66;5025882;28;20489;-29
2023/08/06 07:04:31;;;;;;;5.72;1.30;;;;;;;25.42;51.17;95677.88;5027952;28;20017;-29
2023/08/06 07:06:56;;;;;;;4.38;1.40;;;;;;;25.60;50.92;95678.16;5013712;28;20021;-29
2023/08/06 07:09:21;;;;;;;5.60;1.50;;;;;;;25.60;50.98;95675.38;5020356;28;20048;-29
2023/08/06 07:11:47;;;;;;;2.28;1.30;;;;;;;25.45;51.23;95675.28;5014459;28;20028;-30
2023/08/06 07:14:14;;;;;;;2.15;1.23;;;;;;;25.50;51.36;95682.72;5021372;28;20049;-29
2023/08/06 07:16:39;;;;;;;2.30;1.45;;;;;;;25.40;51.50;95677.66;5027986;28;20039;-31
2023/08/06 07:19:05;;;;;;;3.67;1.80;;;;;;;25.55;51.18;95679.81;5020784;28;20529;-29
2023/08/06 07:21:32;;;;;;;4.75;1.75;;;;;;;25.71;50.63;95673.09;5021021;28;20101;-30
2023/08/06 07:23:59;;;;;;;5.15;1.70;;;;;;;25.57;51.51;95670.94;5020534;28;20421;-30
2023/08/06 07:26:24;;;;;;;3.53;1.55;;;;;;;25.56;52.89;95672.97;5020896;28;20109;-30
2023/08/06 07:28:50;;;;;;;6.25;1.88;;;;;;;25.57;52.26;95674.47;5020684;28;20108;-30
2023/08/06 07:31:15;;;;;;;2.67;1.58;;;;;;;25.54;52.23;95678.31;5016057;28;20355;-29
2023/08/06 07:33:41;;;;;;;3.47;1.40;;;;;;;25.45;52.50;95683.63;5023383;28;20035;-29
2023/08/06 07:36:14;;;;;;;3.30;1.40;;;;;;;25.50;52.61;95688.28;5015302;28;20046;-31
2023/08/06 07:38:40;;;;;;;;;;;;;;;25.58;52.01;95684.28;5024021;28;20041;-29
2023/08/06 07:41:05;;;;;;;4.20;2.55;;;;;;;25.50;52.27;95682.72;5015617;28;19913;-30
2023/08/06 07:43:31;;;;;;;3.88;2.30;;;;;;;25.64;52.25;95689.69;5024047;28;20063;-28
2023/08/06 07:46:00;;;;;;;5.15;2.20;;;;;;;25.62;52.66;95683.94;5023261;28;20025;-29
2023/08/06 07:48:27;;;;;;;4.18;1.98;;;;;;;25.55;53.52;95679.81;5020662;28;20053;-29
2023/08/06 07:50:53;;;;;;;4.30;2.08;;;;;;;25.71;51.91;95675.88;5012958;28;20375;-31
2023/08/06 07:53:23;;;;;;;4.30;2.30;;;;;;;25.91;51.90;95688.22;5020639;28;20025;-29
2023/08/06 07:55:52;;;;;;;17.48;10.65;;;;;;;25.73;52.68;95678.09;5024444;28;20473;-31
2023/08/06 07:58:18;;;;;;;10.45;6.15;;;;;;;25.45;52.70;95673.25;5022981;28;20090;-29
2023/08/06 08:00:45;;;;;;;6.60;4.50;;;;;;;25.36;52.58;95680.03;5023450;28;20030;-29
2023/08/06 08:03:15;;;;;;;10.68;4.72;;;;;;;25.66;51.58;95668.44;5023403;28;20029;-29
2023/08/06 08:05:42;;;;;;;5.32;3.10;;;;;;;25.53;52.38;95676.84;5021507;28;20478;-29
2023/08/06 08:08:07;;;;;;;6.30;3.20;;;;;;;25.79;51.11;95673.16;5018141;28;20021;-29
2023/08/06 08:10:34;;;;;;;6.43;2.95;;;;;;;25.73;51.57;95673.28;5022989;28;20482;-30
2023/08/06 08:13:02;;;;;;;6.65;2.30;;;;;;;25.72;51.16;95673.81;5013630;28;20041;-29
2023/08/06 08:15:32;;;;;;;3.45;2.00;;;;;;;25.82;51.35;95674.09;5021203;28;20067;-29
2023/08/06 08:17:58;;;;;;;4.18;1.75;;;;;;;25.80;51.19;95677.41;5019530;28;20549;-31
2023/08/06 08:20:24;;;;;;;5.43;1.88;;;;;;;25.98;50.94;95668.06;5026813;28;20087;-29
2023/08/06 08:22:49;;;;;;;4.00;1.70;;;;;;;25.83;51.00;95673.56;5018544;28;20470;-29
2023/08/06 08:25:16;;;;;;;5.13;2.13;;;;;;;25.73;51.43;95666.97;5016678;28;20024;-29
2023/08/06 08:27:41;;;;;;;3.20;1.77;;;;;;;25.82;51.04;95663.72;5023834;28;20033;-29
2023/08/06 08:30:07;;;;;;;4.93;1.83;;;;;;;26.12;50.63;95663.88;5017537;28;20029;-29
2023/08/06 08:32:33;;;;;;;2.17;1.70;;;;;;;26.15;50.62;95664.06;5024141;28;20022;-29
2023/08/06 08:34:58;;;;;;;3.58;1.70;;;;;;;26.10;50.67;95666.47;5023745;28;20079;-29
2023/08/06 08:37:24;;;;;;;2.10;1.60;;;;;;;25.75;51.79;95667.19;5026641;28;20400;-29
2023/08/06 08:39:50;;;;;;;4.03;1.40;;;;;;;26.08;50.78;95682.22;5020640;28;20113;-30
2023/08/06 08:42:16;;;;;;;3.55;1.48;;;;;;;26.22;50.74;95682.81;5024145;28;20060;-29
2023/08/06 08:44:42;;;;;;;4.63;1.67;;;;;;;26.20;50.92;95675.03;5020986;28;20037;-29
2023/08/06 08:47:11;;;;;;;3.08;1.20;;;;;;;26.22;51.11;95677.25;5026781;28;20028;-29
2023/08/06 08:49:38;;;;;;;3.78;1.45;;;;;;;26.27;50.71;95674.31;5026672;28;20542;-29
2023/08/06 08:52:10;;;;;;;2.88;1.20;;;;;;;26.23;51.10;95673.19;5027726;28;20128;-29
2023/08/06 08:54:38;;;;;;;3.27;1.47;;;;;;;26.34;50.58;95672.88;5018603;28;20032;-29
2023/08/06 08:57:04;;;;;;;3.15;1.20;;;;;;;26.34;50.56;95679.19;5028065;28;20026;-29
2023/08/06 08:59:29;;;;;;;2.88;1.30;;;;;;;26.34;50.53;95678.44;5024539;28;20592;-29
2023/08/06 09:01:56;;;;;;;2.10;1.20;;;;;;;26.27;50.52;95684.69;5021750;28;20116;-29
2023/08/06 09:04:22;;;;;;;2.83;1.02;;;;;;;26.26;50.31;95672.09;5030468;28;20025;-29
2023/08/06 09:06:50;;;;;;;2.10;1.10;;;;;;;26.41;51.24;95677.75;5023106;28;20013;-29
2023/08/06 09:09:24;;;;;;;3.67;1.30;;;;;;;26.41;50.69;95683.31;5023468;28;20378;-29
2023/08/06 09:11:50;;;;;;;4.90;1.58;;;;;;;26.28;51.00;95680.66;5023287;28;20060;-29
2023/08/06 09:14:16;;;;;;;2.28;1.42;;;;;;;25.84;52.34;95683.34;5023493;28;20045;-30
2023/08/06 09:16:41;;;;;;;2.45;1.08;;;;;;;26.24;50.69;95680.22;5023080;28;20535;-28
2023/08/06 09:19:17;;;;;;;4.25;0.90;;;;;;;26.25;51.41;95670.59;5016459;28;20133;-29
2023/08/06 09:21:43;;;;;;;3.83;1.60;;;;;;;26.29;50.75;95671.78;5022974;28;20048;-29
2023/08/06 09:24:12;;;;;;;1.92;1.17;;;;;;;26.10;50.97;95654.59;5025667;28;20025;-30
2023/08/06 09:26:43;;;;;;;2.92;1.30;;;;;;;26.20;50.89;95671.53;5025680;28;20416;-29
2023/08/06 09:29:12;;;;;;;2.58;1.30;;;;;;;26.15;51.37;95662.03;5017977;28;20025;-29
2023/08/06 09:31:45;;;;;;;3.20;1.13;;;;;;;26.29;50.51;95663.44;5027841;28;20061;-29
2023/08/06 09:34:18;;;;;;;3.42;1.40;;;;;;;26.37;50.30;95666.97;5023273;28;20060;-29
2023/08/06 09:36:53;;;;;;;4.38;1.38;;;;;;;26.34;50.25;95676.41;5021190;28;20026;-29
2023/08/06 09:39:29;;;;;;;2.28;1.40;;;;;;;26.30;50.85;95673.25;5022541;28;20457;-29
2023/08/06 09:42:00;;;;;;;4.43;1.30;;;;;;;26.13;50.94;95670.94;5022062;28;20033;-29
2023/08/06 09:44:27;;;;;;;3.38;1.25;;;;;;;26.18;50.77;95665.78;5030252;28;20022;-31
2023/08/06 09:46:58;;;;;;;2.33;1.58;;;;;;;26.50;49.48;95677.22;5022496;28;20022;-28
2023/08/06 09:49:33;;;;;;;4.45;1.20;;;;;;;26.38;49.96;95668.47;5015945;28;20584;-29
2023/08/06 09:51:59;;;;;;;2.45;1.17;;;;;;;26.38;50.22;95673.28;5025883;28;20029;-31
2023/08/06 09:54:27;;;;;;;3.33;1.40;;;;;;;26.43;49.97;95662.00;5017340;28;20038;-29
2023/08/06 09:56:56;;;;;;;4.72;1.20;;;;;;;26.37;49.73;95671.78;5028099;28;20022;-29
2023/08/06 09:59:23;;;;;;;1.98;1.20;;;;;;;26.36;50.39;95671.06;5029238;28;20048;-30
2023/08/06 10:01:49;;;;;;;2.10;1.50;;;;;;;26.46;49.85;95660.88;5018208;28;20553;-29
2023/08/06 10:04:18;;;;;;;2.55;1.33;;;;;;;26.51;49.83;95662.03;5019635;28;20109;-29
2023/08/06 10:06:50;;;;;;;4.07;1.27;;;;;;;26.46;49.22;95665.72;5022304;28;20031;-29
2023/08/06 10:09:16;;;;;;;3.35;1.30;;;;;;;26.63;48.23;95674.31;5019672;28;20362;-30
2023/08/06 10:11:47;;;;;;;2.72;1.05;;;;;;;26.69;48.14;95666.53;5022154;28;20028;-30
2023/08/06 10:14:18;;;;;;;2.55;1.40;;;;;;;26.78;47.52;95668.78;5024348;28;20393;-29
2023/08/06 10:16:44;;;;;;;4.95;1.38;;;;;;;26.78;47.71;95665.25;5023987;28;20021;-29
2023/08/06 10:19:12;;;;;;;4.80;1.45;;;;;;;26.80;47.11;95676.59;5021728;28;20025;-29
2023/08/06 10:21:40;;;;;;;3.10;1.25;;;;;;;26.75;47.41;95672.66;5022141;28;20025;-29
2023/08/06 10:24:11;;;;;;;2.30;1.00;;;;;;;26.66;47.56;95675.25;5024532;28;20029;-28
2023/08/06 10:26:37;;;;;;;3.47;1.40;;;;;;;26.73;46.88;95691.19;5024960;28;20459;-29
2023/08/06 10:29:36;;;;;;;4.43;1.23;;;;;;;26.64;46.88;95688.94;5023806;28;20030;-28
2023/08/06 10:32:01;;;;;;;1.95;1.00;;;;;;;26.71;47.26;95699.34;5022064;28;20057;-29
2023/08/06 10:35:13;;;;;;;3.65;1.40;;;;;;;26.51;48.24;95694.66;5025033;28;20060;-28
2023/08/06 10:37:38;;;;;;;4.88;1.73;;;;;;;26.64;47.54;95698.03;5019571;28;20050;-30
2023/08/06 10:40:07;;;;;;;2.08;1.00;;;;;;;26.73;46.83;95700.28;5023365;28;20024;-29
2023/08/06 10:42:33;;;;;;;4.28;1.40;;;;;;;26.85;46.21;95700.69;5021629;28;20049;-28
2023/08/06 10:45:11;;;;;;;3.75;1.30;;;;;;;26.76;46.35;95690.84;5020709;28;20053;-30
2023/08/06 10:47:40;;;;;;;3.90;0.98;;;;;;;26.81;46.36;95687.16;5017335;28;20017;-31
2023/08/06 10:50:18;;;;;;;5.47;1.38;;;;;;;26.59;47.31;95689.84;5018041;28;20045;-28
2023/08/06 10:52:45;;;;;;;3.67;1.20;;;;;;;26.81;46.68;95695.50;5021579;28;20421;-29
2023/08/06 10:55:11;;;;;;;3.55;1.50;;;;;;;26.71;46.68;95686.19;5021397;28;20025;-29
2023/08/06 10:57:36;;;;;;;3.00;1.05;;;;;;;26.74;47.15;95695.47;5023019;28;20036;-28
2023/08/06 11:00:05;;;;;;;8.90;1.27;;;;;;;26.75;47.56;95685.81;5025309;28;20060;-28
2023/08/06 11:02:34;;;;;;;5.68;1.65;;;;;;;26.92;46.22;95682.53;5020687;28;20031;-29
2023/08/06 11:05:07;;;;;;;6.85;1.70;;;;;;;26.95;45.86;95673.13;5017851;28;20032;-30
2023/08/06 11:07:33;;;;;;;6.25;1.80;;;;;;;26.91;46.48;95678.28;5015175;28;20017;-29
2023/08/06 11:10:07;;;;;;;6.22;1.80;;;;;;;26.96;46.46;95677.38;5019662;28;20034;-29
2023/08/06 11:12:36;;;;;;;5.60;1.70;;;;;;;26.90;46.91;95674.00;5027912;28;20155;-30
2023/08/06 11:15:02;;;;;;;9.00;1.98;;;;;;;27.11;46.69;95671.81;5020599;28;20108;-29
2023/08/06 11:17:29;;;;;;;10.93;2.22;;;;;;;27.14;46.88;95670.72;5013499;28;20091;-29
2023/08/06 11:19:55;;;;;;;7.97;2.13;;;;;;;26.99;46.88;95679.78;5022313;28;20033;-28
2023/08/06 11:22:21;;;;;;;8.60;2.25;;;;;;;27.07;46.60;95672.22;5020072;28;20156;-28
2023/08/06 11:24:48;;;;;;;6.28;1.98;;;;;;;27.09;46.52;95668.84;5027754;28;20492;-29
2023/08/06 11:27:14;;;;;;;7.47;2.03;;;;;;;27.13;46.31;95664.41;5021031;28;20406;-29
2023/08/06 11:29:41;;;;;;;9.93;2.38;;;;;;;27.19;46.20;95661.47;5019577;28;20096;-29
2023/08/06 11:32:08;;;;;;;5.85;2.40;;;;;;;27.08;46.83;95664.56;5020475;28;20021;-29